Western Pride — WDD5447 — position and weather

sailwx.info

Track history (hours):
 
Tides and Currents Weather Stations Pressure Air Temp Water Temp Dewpoint Dewpoint Depression Visibility Wind Speed Wind Dir Waves Ship Positions

Western Pride

Owner: Western Pride, Balboa, CA. More information available from US FCC via Universal Licensing System and Coast Guard Vessel Documentation Center.

Last reported at 2018-Jun-23 22:20 UTC. Time now 2018-Jun-25 10:06 UTC.
Position N 33°37' W 117°58'.

Length 23 m.

Type: Passenger vessel. MMSI: 367158550.

Date/timePositionNaut miles runAvg speedWind from/ knotsBaromVisibWave heightAir tempDewpointWater temp
2018-Jun-23 22:20N 33°37' W 117°58'0 0.0
2018-Jun-23 20:16N 33°37' W 117°58'2 8.5
2018-Jun-23 20:00N 33°36' W 117°56'1 0.8
2018-Jun-23 18:19N 33°35' W 117°57'310.7
2018-Jun-23 18:00N 33°35' W 118°01'510.5
2018-Jun-23 17:30N 33°36' W 118°08'3 6.4
2018-Jun-23 17:00N 33°36' W 118°11'0 0.0
2018-Jun-23 16:29N 33°36' W 118°11'0 0.1
2018-Jun-23 16:00N 33°36' W 118°11'0 0.1
2018-Jun-23 15:30N 33°36' W 118°11'0 0.1
2018-Jun-23 15:01N 33°36' W 118°11'7 7.9
2018-Jun-23 14:07N 33°36' W 118°03'110.5
2018-Jun-23 14:01N 33°36' W 118°02'510.0
2018-Jun-23 13:31N 33°35' W 117°55'2 0.2
2018-Jun-23 00:01N 33°35' W 117°53'4 8.9
2018-Jun-22 23:36N 33°36' W 117°57'110.1
2018-Jun-22 23:30N 33°37' W 117°58'0 0.4
2018-Jun-22 23:00N 33°37' W 117°58'0 0.0
2018-Jun-22 22:28N 33°37' W 117°58'0 0.0
2018-Jun-22 22:00N 33°37' W 117°58'0 0.0
2018-Jun-22 21:30N 33°37' W 117°58'0 0.0
2018-Jun-22 21:00N 33°37' W 117°58'0 0.1
2018-Jun-22 20:30N 33°37' W 117°58'4 1.9
2018-Jun-22 18:35N 33°35' W 117°54'110.8
2018-Jun-22 18:29N 33°35' W 117°56'510.8
2018-Jun-22 17:59N 33°35' W 118°02'510.8
2018-Jun-22 17:30N 33°36' W 118°08'2 4.9
2018-Jun-22 17:00N 33°36' W 118°11'0 0.0
2018-Jun-22 16:29N 33°36' W 118°11'0 0.1
2018-Jun-22 16:00N 33°36' W 118°11'0 0.1
2018-Jun-22 15:30N 33°36' W 118°11'0 0.1
2018-Jun-22 15:00N 33°36' W 118°11'7 9.8
2018-Jun-22 14:16N 33°35' W 118°02'310.0
2018-Jun-22 13:58N 33°35' W 117°59'2 0.1
2018-Jun-21 21:48N 33°37' W 117°58'0 0.0
2018-Jun-21 21:29N 33°37' W 117°58'0 0.0
2018-Jun-21 20:55N 33°37' W 117°58'0 0.1
2018-Jun-21 20:22N 33°37' W 117°58'1 0.4
2018-Jun-21 18:33N 33°37' W 117°59'110.5
2018-Jun-21 18:29N 33°37' W 117°60'510.7
2018-Jun-21 18:00N 33°39' W 118°05'1 0.9
2018-Jun-21 17:23N 33°40' W 118°06'0 0.0
2018-Jun-21 17:00N 33°40' W 118°06'0 0.0
2018-Jun-21 16:29N 33°40' W 118°06'0 0.0
2018-Jun-21 16:00N 33°40' W 118°06'0 0.0
2018-Jun-21 15:25N 33°40' W 118°06'0 0.0
2018-Jun-21 14:59N 33°40' W 118°06'4 7.8
2018-Jun-21 14:30N 33°38' W 118°02'510.0
2018-Jun-21 14:00N 33°36' W 117°56'6 0.4
2018-Jun-20 23:34N 33°39' W 118°02'111.2
2018-Jun-20 23:30N 33°39' W 118°03'2 4.7
2018-Jun-20 22:59N 33°40' W 118°06'0 0.0
2018-Jun-20 22:30N 33°40' W 118°06'0 0.1
2018-Jun-20 22:00N 33°39' W 118°06'0 0.0
2018-Jun-20 21:30N 33°39' W 118°06'2 4.5
2018-Jun-20 21:00N 33°39' W 118°03'5 9.8
2018-Jun-20 20:30N 33°37' W 117°58'1 0.3
2018-Jun-20 18:24N 33°37' W 117°59'410.6
2018-Jun-20 18:00N 33°38' W 118°03'2 2.9
2018-Jun-20 17:12N 33°39' W 118°06'0 0.1
2018-Jun-20 16:59N 33°39' W 118°06'4 8.2
2018-Jun-20 16:30N 33°36' W 118°10'1 2.7
2018-Jun-20 15:59N 33°36' W 118°11'0 0.0
2018-Jun-20 15:30N 33°36' W 118°11'13 0.8
2018-Jun-20 00:36N 33°36' W 117°56'311.3
2018-Jun-20 00:23N 33°37' W 117°59'411.4
2018-Jun-20 00:00N 33°38' W 118°04'2 4.2
2018-Jun-19 23:30N 33°39' W 118°06'0 0.1
2018-Jun-19 23:00N 33°39' W 118°06'1 1.3
2018-Jun-19 22:30N 33°40' W 118°06'0 0.0
2018-Jun-19 21:59N 33°40' W 118°06'0 0.0
2018-Jun-19 21:30N 33°40' W 118°06'2 4.4
2018-Jun-19 21:00N 33°39' W 118°03'5 9.8
2018-Jun-19 20:29N 33°37' W 117°58'2 1.0
2018-Jun-19 18:30N 33°38' W 118°00'510.7
2018-Jun-19 18:00N 33°40' W 118°06'0 0.1
2018-Jun-19 17:30N 33°40' W 118°06'1 1.4
2018-Jun-19 17:00N 33°39' W 118°06'4 7.2
2018-Jun-19 16:30N 33°37' W 118°10'2 3.6
2018-Jun-19 16:00N 33°36' W 118°11'0 0.0
2018-Jun-19 15:10N 33°36' W 118°11'1 2.8
2018-Jun-19 14:56N 33°36' W 118°10'510.3
2018-Jun-19 14:24N 33°35' W 118°04'510.2
2018-Jun-19 13:57N 33°35' W 117°58'2 0.1
2018-Jun-18 23:13N 33°37' W 117°58'0 0.0
2018-Jun-18 23:01N 33°37' W 117°58'0 0.0
2018-Jun-18 22:29N 33°37' W 117°58'0 0.0
2018-Jun-18 21:59N 33°37' W 117°58'0 0.0
2018-Jun-18 21:29N 33°37' W 117°58'0 0.0
2018-Jun-18 20:58N 33°37' W 117°58'0 0.2
2018-Jun-18 20:31N 33°37' W 117°58'0 0.0
2018-Jun-18 16:56N 33°37' W 117°58'0 0.0
2018-Jun-18 16:28N 33°37' W 117°58'0 0.0
2018-Jun-18 15:56N 33°37' W 117°58'0 0.0
2018-Jun-18 15:28N 33°37' W 117°58'0 0.1
2018-Jun-18 15:00N 33°37' W 117°58'0 0.1
2018-Jun-18 14:28N 33°37' W 117°58'0 0.3
2018-Jun-18 14:00N 33°37' W 117°58'3 0.2
2018-Jun-17 23:56N 33°36' W 117°55'3 1.9
2018-Jun-17 22:35N 33°37' W 117°58'0 2.2
2018-Jun-17 22:27N 33°37' W 117°58'0 0.2
2018-Jun-17 20:51N 33°37' W 117°58'2 6.8
2018-Jun-17 20:30N 33°35' W 117°57'3 1.8
2018-Jun-17 18:46N 33°35' W 117°53'310.4
2018-Jun-17 18:29N 33°35' W 117°56'510.6
2018-Jun-17 17:59N 33°36' W 118°03'510.5
2018-Jun-17 17:29N 33°36' W 118°09'2 3.7
2018-Jun-17 16:58N 33°36' W 118°11'0 0.3
2018-Jun-17 16:30N 33°36' W 118°11'0 0.0
2018-Jun-17 16:00N 33°36' W 118°11'0 0.0
2018-Jun-17 15:29N 33°36' W 118°11'0 0.1
2018-Jun-17 14:59N 33°36' W 118°11'3 6.2
2018-Jun-17 14:29N 33°35' W 118°08'610.6
2018-Jun-17 13:58N 33°35' W 118°01'3 0.5
2018-Jun-17 06:54N 33°37' W 117°57'1 1.8
2018-Jun-17 06:24N 33°37' W 117°58'0 0.0
2018-Jun-17 05:46N 33°37' W 117°58'0 0.0
2018-Jun-17 05:17N 33°37' W 117°58'0 0.0
2018-Jun-17 04:56N 33°37' W 117°58'0 0.4
2018-Jun-17 04:28N 33°37' W 117°58'0 0.0
2018-Jun-17 04:00N 33°37' W 117°58'3 5.8
2018-Jun-17 03:30N 33°36' W 117°55'1 0.9
2018-Jun-17 01:52N 33°35' W 117°54'2 3.6
2018-Jun-17 01:11N 33°35' W 117°57'4 2.2
2018-Jun-16 23:33N 33°34' W 117°53'2 0.4
2018-Jun-16 18:43N 33°35' W 117°54'2 9.4
2018-Jun-16 18:30N 33°35' W 117°56'510.1
2018-Jun-16 18:00N 33°36' W 118°02'510.6
2018-Jun-16 17:30N 33°36' W 118°09'2 4.2
2018-Jun-16 17:00N 33°36' W 118°11'0 0.0
2018-Jun-16 16:28N 33°36' W 118°11'0 0.0
2018-Jun-16 15:59N 33°36' W 118°11'0 0.0
2018-Jun-16 15:30N 33°36' W 118°11'0 0.7
2018-Jun-16 14:58N 33°36' W 118°11'7 9.6
2018-Jun-16 14:16N 33°36' W 118°03'3 9.5
2018-Jun-16 14:00N 33°35' W 117°60'4 0.3
2018-Jun-16 00:28N 33°36' W 117°56'511.1
2018-Jun-16 00:00N 33°38' W 118°02'4 7.9
2018-Jun-15 23:29N 33°39' W 118°06'0 0.2
2018-Jun-15 23:00N 33°39' W 118°06'1 1.3
2018-Jun-15 22:30N 33°40' W 118°06'0 0.0
2018-Jun-15 21:57N 33°40' W 118°06'0 0.0
2018-Jun-15 21:27N 33°40' W 118°06'2 3.7
2018-Jun-15 21:00N 33°39' W 118°04'4 9.0
2018-Jun-15 20:30N 33°37' W 117°59'4 2.3
2018-Jun-15 18:38N 33°35' W 117°54'210.5
2018-Jun-15 18:28N 33°35' W 117°57'510.7
2018-Jun-15 18:01N 33°36' W 118°02'510.6
2018-Jun-15 17:31N 33°36' W 118°09'2 3.8
2018-Jun-15 16:59N 33°36' W 118°11'0 0.0
2018-Jun-15 16:30N 33°36' W 118°11'0 0.0
2018-Jun-15 16:00N 33°36' W 118°11'0 0.1
2018-Jun-15 15:30N 33°36' W 118°11'0 0.0
2018-Jun-15 15:00N 33°36' W 118°11'4 8.2
2018-Jun-15 14:29N 33°35' W 118°06'510.1
2018-Jun-15 14:00N 33°35' W 118°00'5 0.4
2018-Jun-15 01:24N 33°36' W 117°54'0 0.3
2018-Jun-15 00:53N 33°36' W 117°54'2 3.6
2018-Jun-15 00:23N 33°35' W 117°52'2 5.4
2018-Jun-15 00:00N 33°34' W 117°50'1 1.6
2018-Jun-14 23:17N 33°34' W 117°52'310.8
2018-Jun-14 23:00N 33°36' W 117°55'3 6.0
2018-Jun-14 22:29N 33°37' W 117°58'0 0.2
2018-Jun-14 22:00N 33°37' W 117°58'0 0.0
2018-Jun-14 21:30N 33°37' W 117°58'0 0.0
2018-Jun-14 20:59N 33°37' W 117°58'0 0.1
2018-Jun-14 20:30N 33°37' W 117°58'5 3.0
2018-Jun-14 18:52N 33°35' W 117°53'410.7
2018-Jun-14 18:30N 33°35' W 117°57'510.8
2018-Jun-14 18:00N 33°34' W 118°04'4 7.0
2018-Jun-14 17:28N 33°34' W 118°08'1 1.7
2018-Jun-14 17:00N 33°35' W 118°09'1 2.9
2018-Jun-14 16:30N 33°36' W 118°10'1 1.5
2018-Jun-14 16:00N 33°36' W 118°11'0 0.1
2018-Jun-14 15:30N 33°36' W 118°11'0 0.1
2018-Jun-14 14:59N 33°36' W 118°11'5 8.5
2018-Jun-14 14:25N 33°36' W 118°05'410.2
2018-Jun-14 14:00N 33°35' W 118°00'5 0.4
2018-Jun-14 00:21N 33°36' W 117°54'1 2.1
2018-Jun-14 00:00N 33°36' W 117°54'4 7.3
2018-Jun-13 23:30N 33°36' W 117°58'0 0.8
2018-Jun-13 23:00N 33°37' W 117°58'1 1.5
2018-Jun-13 22:30N 33°36' W 117°58'  
Track history (hours):
 
Tides and Currents Weather Stations Pressure Air Temp Water Temp Dewpoint Dewpoint Depression Visibility Wind Speed Wind Dir Waves Ship Positions

Western Pride

Owner: Western Pride, Balboa, CA. More information available from US FCC via Universal Licensing System and Coast Guard Vessel Documentation Center.

Last reported at 2018-Jun-23 22:20 UTC. Time now 2018-Jun-25 10:06 UTC.
Position N 33°37' W 117°58'.

Length 23 m.

Type: Passenger vessel. MMSI: 367158550.

Date/timePositionNaut miles runAvg speedWind from/ knotsBaromVisibWave heightAir tempDewpointWater temp
2018-Jun-23 22:20N 33°37' W 117°58'0 0.0
2018-Jun-23 20:16N 33°37' W 117°58'2 8.5
2018-Jun-23 20:00N 33°36' W 117°56'1 0.8
2018-Jun-23 18:19N 33°35' W 117°57'310.7
2018-Jun-23 18:00N 33°35' W 118°01'510.5
2018-Jun-23 17:30N 33°36' W 118°08'3 6.4
2018-Jun-23 17:00N 33°36' W 118°11'0 0.0
2018-Jun-23 16:29N 33°36' W 118°11'0 0.1
2018-Jun-23 16:00N 33°36' W 118°11'0 0.1
2018-Jun-23 15:30N 33°36' W 118°11'0 0.1
2018-Jun-23 15:01N 33°36' W 118°11'7 7.9
2018-Jun-23 14:07N 33°36' W 118°03'110.5
2018-Jun-23 14:01N 33°36' W 118°02'510.0
2018-Jun-23 13:31N 33°35' W 117°55'2 0.2
2018-Jun-23 00:01N 33°35' W 117°53'4 8.9
2018-Jun-22 23:36N 33°36' W 117°57'110.1
2018-Jun-22 23:30N 33°37' W 117°58'0 0.4
2018-Jun-22 23:00N 33°37' W 117°58'0 0.0
2018-Jun-22 22:28N 33°37' W 117°58'0 0.0
2018-Jun-22 22:00N 33°37' W 117°58'0 0.0
2018-Jun-22 21:30N 33°37' W 117°58'0 0.0
2018-Jun-22 21:00N 33°37' W 117°58'0 0.1
2018-Jun-22 20:30N 33°37' W 117°58'4 1.9
2018-Jun-22 18:35N 33°35' W 117°54'110.8
2018-Jun-22 18:29N 33°35' W 117°56'510.8
2018-Jun-22 17:59N 33°35' W 118°02'510.8
2018-Jun-22 17:30N 33°36' W 118°08'2 4.9
2018-Jun-22 17:00N 33°36' W 118°11'0 0.0
2018-Jun-22 16:29N 33°36' W 118°11'0 0.1
2018-Jun-22 16:00N 33°36' W 118°11'0 0.1
2018-Jun-22 15:30N 33°36' W 118°11'0 0.1
2018-Jun-22 15:00N 33°36' W 118°11'7 9.8
2018-Jun-22 14:16N 33°35' W 118°02'310.0
2018-Jun-22 13:58N 33°35' W 117°59'2 0.1
2018-Jun-21 21:48N 33°37' W 117°58'0 0.0
2018-Jun-21 21:29N 33°37' W 117°58'0 0.0
2018-Jun-21 20:55N 33°37' W 117°58'0 0.1
2018-Jun-21 20:22N 33°37' W 117°58'1 0.4
2018-Jun-21 18:33N 33°37' W 117°59'110.5
2018-Jun-21 18:29N 33°37' W 117°60'510.7
2018-Jun-21 18:00N 33°39' W 118°05'1 0.9
2018-Jun-21 17:23N 33°40' W 118°06'0 0.0
2018-Jun-21 17:00N 33°40' W 118°06'0 0.0
2018-Jun-21 16:29N 33°40' W 118°06'0 0.0
2018-Jun-21 16:00N 33°40' W 118°06'0 0.0
2018-Jun-21 15:25N 33°40' W 118°06'0 0.0
2018-Jun-21 14:59N 33°40' W 118°06'4 7.8
2018-Jun-21 14:30N 33°38' W 118°02'510.0
2018-Jun-21 14:00N 33°36' W 117°56'6 0.4
2018-Jun-20 23:34N 33°39' W 118°02'111.2
2018-Jun-20 23:30N 33°39' W 118°03'2 4.7
2018-Jun-20 22:59N 33°40' W 118°06'0 0.0
2018-Jun-20 22:30N 33°40' W 118°06'0 0.1
2018-Jun-20 22:00N 33°39' W 118°06'0 0.0
2018-Jun-20 21:30N 33°39' W 118°06'2 4.5
2018-Jun-20 21:00N 33°39' W 118°03'5 9.8
2018-Jun-20 20:30N 33°37' W 117°58'1 0.3
2018-Jun-20 18:24N 33°37' W 117°59'410.6
2018-Jun-20 18:00N 33°38' W 118°03'2 2.9
2018-Jun-20 17:12N 33°39' W 118°06'0 0.1
2018-Jun-20 16:59N 33°39' W 118°06'4 8.2
2018-Jun-20 16:30N 33°36' W 118°10'1 2.7
2018-Jun-20 15:59N 33°36' W 118°11'0 0.0
2018-Jun-20 15:30N 33°36' W 118°11'13 0.8
2018-Jun-20 00:36N 33°36' W 117°56'311.3
2018-Jun-20 00:23N 33°37' W 117°59'411.4
2018-Jun-20 00:00N 33°38' W 118°04'2 4.2
2018-Jun-19 23:30N 33°39' W 118°06'0 0.1
2018-Jun-19 23:00N 33°39' W 118°06'1 1.3
2018-Jun-19 22:30N 33°40' W 118°06'0 0.0
2018-Jun-19 21:59N 33°40' W 118°06'0 0.0
2018-Jun-19 21:30N 33°40' W 118°06'2 4.4
2018-Jun-19 21:00N 33°39' W 118°03'5 9.8
2018-Jun-19 20:29N 33°37' W 117°58'2 1.0
2018-Jun-19 18:30N 33°38' W 118°00'510.7
2018-Jun-19 18:00N 33°40' W 118°06'0 0.1
2018-Jun-19 17:30N 33°40' W 118°06'1 1.4
2018-Jun-19 17:00N 33°39' W 118°06'4 7.2
2018-Jun-19 16:30N 33°37' W 118°10'2 3.6
2018-Jun-19 16:00N 33°36' W 118°11'0 0.0
2018-Jun-19 15:10N 33°36' W 118°11'1 2.8
2018-Jun-19 14:56N 33°36' W 118°10'510.3
2018-Jun-19 14:24N 33°35' W 118°04'510.2
2018-Jun-19 13:57N 33°35' W 117°58'2 0.1
2018-Jun-18 23:13N 33°37' W 117°58'0 0.0
2018-Jun-18 23:01N 33°37' W 117°58'0 0.0
2018-Jun-18 22:29N 33°37' W 117°58'0 0.0
2018-Jun-18 21:59N 33°37' W 117°58'0 0.0
2018-Jun-18 21:29N 33°37' W 117°58'0 0.0
2018-Jun-18 20:58N 33°37' W 117°58'0 0.2
2018-Jun-18 20:31N 33°37' W 117°58'0 0.0
2018-Jun-18 16:56N 33°37' W 117°58'0 0.0
2018-Jun-18 16:28N 33°37' W 117°58'0 0.0
2018-Jun-18 15:56N 33°37' W 117°58'0 0.0
2018-Jun-18 15:28N 33°37' W 117°58'0 0.1
2018-Jun-18 15:00N 33°37' W 117°58'0 0.1
2018-Jun-18 14:28N 33°37' W 117°58'0 0.3
2018-Jun-18 14:00N 33°37' W 117°58'3 0.2
2018-Jun-17 23:56N 33°36' W 117°55'3 1.9
2018-Jun-17 22:35N 33°37' W 117°58'0 2.2
2018-Jun-17 22:27N 33°37' W 117°58'0 0.2
2018-Jun-17 20:51N 33°37' W 117°58'2 6.8
2018-Jun-17 20:30N 33°35' W 117°57'3 1.8
2018-Jun-17 18:46N 33°35' W 117°53'310.4
2018-Jun-17 18:29N 33°35' W 117°56'510.6
2018-Jun-17 17:59N 33°36' W 118°03'510.5
2018-Jun-17 17:29N 33°36' W 118°09'2 3.7
2018-Jun-17 16:58N 33°36' W 118°11'0 0.3
2018-Jun-17 16:30N 33°36' W 118°11'0 0.0
2018-Jun-17 16:00N 33°36' W 118°11'0 0.0
2018-Jun-17 15:29N 33°36' W 118°11'0 0.1
2018-Jun-17 14:59N 33°36' W 118°11'3 6.2
2018-Jun-17 14:29N 33°35' W 118°08'610.6
2018-Jun-17 13:58N 33°35' W 118°01'3 0.5
2018-Jun-17 06:54N 33°37' W 117°57'1 1.8
2018-Jun-17 06:24N 33°37' W 117°58'0 0.0
2018-Jun-17 05:46N 33°37' W 117°58'0 0.0
2018-Jun-17 05:17N 33°37' W 117°58'0 0.0
2018-Jun-17 04:56N 33°37' W 117°58'0 0.4
2018-Jun-17 04:28N 33°37' W 117°58'0 0.0
2018-Jun-17 04:00N 33°37' W 117°58'3 5.8
2018-Jun-17 03:30N 33°36' W 117°55'1 0.9
2018-Jun-17 01:52N 33°35' W 117°54'2 3.6
2018-Jun-17 01:11N 33°35' W 117°57'4 2.2
2018-Jun-16 23:33N 33°34' W 117°53'2 0.4
2018-Jun-16 18:43N 33°35' W 117°54'2 9.4
2018-Jun-16 18:30N 33°35' W 117°56'510.1
2018-Jun-16 18:00N 33°36' W 118°02'510.6
2018-Jun-16 17:30N 33°36' W 118°09'2 4.2
2018-Jun-16 17:00N 33°36' W 118°11'0 0.0
2018-Jun-16 16:28N 33°36' W 118°11'0 0.0
2018-Jun-16 15:59N 33°36' W 118°11'0 0.0
2018-Jun-16 15:30N 33°36' W 118°11'0 0.7
2018-Jun-16 14:58N 33°36' W 118°11'7 9.6
2018-Jun-16 14:16N 33°36' W 118°03'3 9.5
2018-Jun-16 14:00N 33°35' W 117°60'4 0.3
2018-Jun-16 00:28N 33°36' W 117°56'511.1
2018-Jun-16 00:00N 33°38' W 118°02'4 7.9
2018-Jun-15 23:29N 33°39' W 118°06'0 0.2
2018-Jun-15 23:00N 33°39' W 118°06'1 1.3
2018-Jun-15 22:30N 33°40' W 118°06'0 0.0
2018-Jun-15 21:57N 33°40' W 118°06'0 0.0
2018-Jun-15 21:27N 33°40' W 118°06'2 3.7
2018-Jun-15 21:00N 33°39' W 118°04'4 9.0
2018-Jun-15 20:30N 33°37' W 117°59'4 2.3
2018-Jun-15 18:38N 33°35' W 117°54'210.5
2018-Jun-15 18:28N 33°35' W 117°57'510.7
2018-Jun-15 18:01N 33°36' W 118°02'510.6
2018-Jun-15 17:31N 33°36' W 118°09'2 3.8
2018-Jun-15 16:59N 33°36' W 118°11'0 0.0
2018-Jun-15 16:30N 33°36' W 118°11'0 0.0
2018-Jun-15 16:00N 33°36' W 118°11'0 0.1
2018-Jun-15 15:30N 33°36' W 118°11'0 0.0
2018-Jun-15 15:00N 33°36' W 118°11'4 8.2
2018-Jun-15 14:29N 33°35' W 118°06'510.1
2018-Jun-15 14:00N 33°35' W 118°00'5 0.4
2018-Jun-15 01:24N 33°36' W 117°54'0 0.3
2018-Jun-15 00:53N 33°36' W 117°54'2 3.6
2018-Jun-15 00:23N 33°35' W 117°52'2 5.4
2018-Jun-15 00:00N 33°34' W 117°50'1 1.6
2018-Jun-14 23:17N 33°34' W 117°52'310.8
2018-Jun-14 23:00N 33°36' W 117°55'3 6.0
2018-Jun-14 22:29N 33°37' W 117°58'0 0.2
2018-Jun-14 22:00N 33°37' W 117°58'0 0.0
2018-Jun-14 21:30N 33°37' W 117°58'0 0.0
2018-Jun-14 20:59N 33°37' W 117°58'0 0.1
2018-Jun-14 20:30N 33°37' W 117°58'5 3.0
2018-Jun-14 18:52N 33°35' W 117°53'410.7
2018-Jun-14 18:30N 33°35' W 117°57'510.8
2018-Jun-14 18:00N 33°34' W 118°04'4 7.0
2018-Jun-14 17:28N 33°34' W 118°08'1 1.7
2018-Jun-14 17:00N 33°35' W 118°09'1 2.9
2018-Jun-14 16:30N 33°36' W 118°10'1 1.5
2018-Jun-14 16:00N 33°36' W 118°11'0 0.1
2018-Jun-14 15:30N 33°36' W 118°11'0 0.1
2018-Jun-14 14:59N 33°36' W 118°11'5 8.5
2018-Jun-14 14:25N 33°36' W 118°05'410.2
2018-Jun-14 14:00N 33°35' W 118°00'5 0.4
2018-Jun-14 00:21N 33°36' W 117°54'1 2.1
2018-Jun-14 00:00N 33°36' W 117°54'4 7.3
2018-Jun-13 23:30N 33°36' W 117°58'0 0.8
2018-Jun-13 23:00N 33°37' W 117°58'1 1.5
2018-Jun-13 22:30N 33°36' W 117°58'  

Dump ship's entire track history